Time;durP1;ratioP1;P1;durP2;ratioP2;P2;SDS_P1;SDS_P2;PMS_P1;PMS_P2;Temp;Humidity;BMP_temperature;BMP_pressure;BME280_temperature;BME280_humidity;BME280_pressure;Samples;Min_cycle;Max_cycle;Signal;HPM_P1;HPM_P2
2022/11/13 00:01:08;;;;;;;;;;;;;;;19.89;38.64;97403.56;5156742;27;20021;-35
2022/11/13 00:03:33;;;;;;;;;;;;;;;19.87;38.71;97398.53;5159011;27;19906;-34
2022/11/13 00:06:00;;;;;;;;;;;;;;;19.90;38.70;97399.59;5158797;27;19907;-33
2022/11/13 00:08:25;;;;;;;;;;;;;;;19.86;38.65;97405.25;5158697;27;19914;-33
2022/11/13 00:10:50;;;;;;;;;;;;;;;19.89;38.70;97400.81;5158655;27;20369;-33
2022/11/13 00:13:15;;;;;;;;;;;;;;;19.86;38.66;97399.00;5158689;27;20279;-34
2022/11/13 00:15:41;;;;;;;;;;;;;;;19.89;38.71;97404.34;5158828;27;20365;-34
2022/11/13 00:18:06;;;;;;;;;;;;;;;19.88;38.73;97399.28;5139898;27;19907;-34
2022/11/13 00:20:31;;;;;;;;;;;;;;;19.92;38.67;97408.13;5158475;27;19996;-33
2022/11/13 00:22:57;;;;;;;;;;;;;;;19.92;38.65;97400.63;5141302;27;20264;-34
2022/11/13 00:25:22;;;;;;;;;;;;;;;19.74;39.10;97400.72;5137939;27;19976;-34
2022/11/13 00:27:47;;;;;;;;;;;;;;;19.87;38.72;97395.78;5137636;27;19990;-35
2022/11/13 00:30:14;;;;;;;;;;;;;;;19.91;38.78;97390.09;5137434;27;20367;-33
2022/11/13 00:32:39;;;;;;;;;;;;;;;19.93;38.62;97393.91;5137696;27;20363;-35
2022/11/13 00:35:05;;;;;;;;;;;;;;;19.96;38.76;97390.22;5137453;27;19994;-33
2022/11/13 00:37:31;;;;;;;;;;;;;;;19.90;38.84;97388.59;5136740;27;19907;-35
2022/11/13 00:39:56;;;;;;;;;;;;;;;19.86;38.94;97377.72;5137514;27;20013;-33
2022/11/13 00:42:21;;;;;;;;;;;;;;;19.81;39.16;97377.59;5137334;27;19942;-33
2022/11/13 00:44:47;;;;;;;;;;;;;;;19.82;39.31;97381.88;5137778;27;20303;-33
2022/11/13 00:47:12;;;;;;;;;;;;;;;19.79;39.17;97380.03;5137101;27;20401;-34
2022/11/13 00:49:37;;;;;;;;;;;;;;;19.89;38.98;97381.56;5137326;27;20006;-34
2022/11/13 00:52:03;;;;;;;;;;;;;;;19.81;39.00;97380.34;5137499;27;20013;-34
2022/11/13 00:54:28;;;;;;;;;;;;;;;19.80;39.19;97373.31;5137287;27;19951;-33
2022/11/13 00:56:53;;;;;;;;;;;;;;;19.82;39.06;97370.84;5137131;27;20320;-33
2022/11/13 00:59:19;;;;;;;;;;;;;;;19.93;38.91;97382.13;5137058;27;19914;-35
2022/11/13 01:01:44;;;;;;;;;;;;;;;19.88;38.82;97366.25;5137129;27;19937;-33
2022/11/13 01:04:09;;;;;;;;;;;;;;;19.83;39.16;97373.16;5136937;27;19952;-33
2022/11/13 01:06:35;;;;;;;;;;;;;;;19.81;39.11;97369.34;5136987;27;19911;-33
2022/11/13 01:09:00;;;;;;;;;;;;;;;19.90;39.01;97369.31;5136809;27;19908;-33
2022/11/13 01:11:27;;;;;;;;;;;;;;;19.81;39.22;97366.59;5139899;27;19942;-34
2022/11/13 01:13:52;;;;;;;;;;;;;;;19.84;39.23;97365.66;5157472;27;19911;-35
2022/11/13 01:16:20;;;;;;;;;;;;;;;19.84;39.07;97371.16;5157260;27;19913;-33
2022/11/13 01:18:45;;;;;;;;;;;;;;;19.81;39.27;97370.09;5157664;27;19959;-34
2022/11/13 01:21:13;;;;;;;;;;;;;;;19.78;39.40;97364.78;5157305;27;19907;-34
2022/11/13 01:23:38;;;;;;;;;;;;;;;19.80;39.20;97363.06;5157190;27;20366;-34
2022/11/13 01:26:11;;;;;;;;;;;;;;;19.80;39.36;97362.31;5157249;27;19964;-33
2022/11/13 01:28:37;;;;;;;;;;;;;;;19.83;39.12;97356.63;5157064;27;19907;-33
2022/11/13 01:31:04;;;;;;;;;;;;;;;19.91;38.99;97355.06;5157009;27;19911;-33
2022/11/13 01:33:29;;;;;;;;;;;;;;;19.80;39.22;97354.81;5157102;27;19917;-33
2022/11/13 01:35:58;;;;;;;;;;;;;;;19.71;39.37;97361.13;5157431;27;19911;-34
2022/11/13 01:38:24;;;;;;;;;;;;;;;19.80;39.31;97348.53;5157266;27;19907;-33
2022/11/13 01:40:49;;;;;;;;;;;;;;;19.85;39.18;97339.66;5156860;27;19914;-34
2022/11/13 01:43:25;;;;;;;;;;;;;;;19.82;39.36;97326.81;5156986;27;19918;-33
2022/11/13 01:45:56;;;;;;;;;;;;;;;19.81;39.27;97328.81;5156829;27;19929;-34
2022/11/13 01:48:22;;;;;;;;;;;;;;;19.81;39.32;97326.06;5155891;27;19930;-33
2022/11/13 01:50:47;;;;;;;;;;;;;;;19.80;39.32;97324.53;5156582;27;19907;-36
2022/11/13 01:53:13;;;;;;;;;;;;;;;19.81;39.48;97325.28;5156810;27;19934;-33
2022/11/13 01:55:39;;;;;;;;;;;;;;;19.85;39.31;97320.38;5156746;27;20463;-33
2022/11/13 01:58:06;;;;;;;;;;;;;;;19.84;39.36;97319.63;5137888;27;19917;-34
2022/11/13 02:00:31;;;;;;;;;;;;;;;19.83;39.47;97322.84;5156750;27;19907;-35
2022/11/13 02:02:57;;;;;;;;;;;;;;;19.82;39.41;97324.06;5156381;27;19914;-33
2022/11/13 02:05:22;;;;;;;;;;;;;;;19.92;39.27;97320.03;5156363;27;19954;-34
2022/11/13 02:07:47;;;;;;;;;;;;;;;19.87;39.37;97320.69;5156336;27;19907;-34
2022/11/13 02:10:14;;;;;;;;;;;;;;;19.78;39.35;97324.22;5156354;27;19919;-35
2022/11/13 02:12:41;;;;;;;;;;;;;;;19.84;39.32;97314.13;5152986;27;19913;-33
2022/11/13 02:15:07;;;;;;;;;;;;;;;19.87;39.42;97306.94;5156388;27;19907;-33
2022/11/13 02:17:39;;;;;;;;;;;;;;;19.85;39.32;97314.88;5156173;27;19914;-33
2022/11/13 02:20:05;;;;;;;;;;;;;;;19.84;39.42;97313.34;5156255;27;19911;-33
2022/11/13 02:22:42;;;;;;;;;;;;;;;19.85;39.59;97314.88;5156117;27;20328;-33
2022/11/13 02:25:09;;;;;;;;;;;;;;;19.83;39.51;97311.84;5156517;27;19918;-33
2022/11/13 02:27:37;;;;;;;;;;;;;;;19.82;39.57;97305.56;5156302;27;19914;-35
2022/11/13 02:30:23;;;;;;;;;;;;;;;19.84;39.58;97316.09;5156295;27;20350;-34
2022/11/13 02:32:49;;;;;;;;;;;;;;;19.79;39.69;97305.72;5156084;27;20285;-33
2022/11/13 02:35:17;;;;;;;;;;;;;;;19.83;39.56;97312.59;5156435;27;20014;-33
2022/11/13 02:37:42;;;;;;;;;;;;;;;19.79;39.68;97313.97;5155876;27;19914;-33
2022/11/13 02:40:08;;;;;;;;;;;;;;;19.80;39.60;97308.00;5155855;27;19907;-33
2022/11/13 02:42:33;;;;;;;;;;;;;;;19.86;39.39;97297.13;5155862;27;19955;-33
2022/11/13 02:45:00;;;;;;;;;;;;;;;19.67;39.88;97301.97;5155809;27;19959;-33
2022/11/13 02:47:25;;;;;;;;;;;;;;;19.79;39.76;97294.72;5155548;27;19994;-33
2022/11/13 02:49:51;;;;;;;;;;;;;;;19.81;39.61;97303.28;5155720;27;20372;-33
2022/11/13 02:52:16;;;;;;;;;;;;;;;19.82;39.56;97299.28;5156061;27;20377;-33
2022/11/13 02:54:41;;;;;;;;;;;;;;;19.80;39.55;97291.50;5155649;27;19960;-33
2022/11/13 02:57:07;;;;;;;;;;;;;;;19.79;39.71;97292.72;5155874;27;20008;-36
2022/11/13 02:59:32;;;;;;;;;;;;;;;19.77;39.67;97295.22;5155116;27;19907;-33
2022/11/13 03:01:57;;;;;;;;;;;;;;;19.78;39.66;97298.72;5155709;27;20227;-33
2022/11/13 03:04:23;;;;;;;;;;;;;;;19.78;39.66;97298.72;5155691;27;19911;-33
2022/11/13 03:06:48;;;;;;;;;;;;;;;19.77;39.70;97286.94;5155803;27;20381;-34
2022/11/13 03:09:13;;;;;;;;;;;;;;;19.73;39.83;97292.63;5155510;27;19950;-33
2022/11/13 03:11:38;;;;;;;;;;;;;;;19.79;39.83;97294.72;5155697;27;19997;-34
2022/11/13 03:14:04;;;;;;;;;;;;;;;19.79;39.70;97294.72;5155382;27;19911;-33
2022/11/13 03:16:29;;;;;;;;;;;;;;;19.75;39.84;97296.91;5155574;27;19907;-33
2022/11/13 03:18:55;;;;;;;;;;;;;;;19.81;39.61;97300.53;5155846;27;19911;-33
2022/11/13 03:21:20;;;;;;;;;;;;;;;19.77;39.74;97299.94;5154800;27;20354;-34
2022/11/13 03:23:45;;;;;;;;;;;;;;;19.78;39.71;97296.72;5155242;27;19915;-34
2022/11/13 03:26:13;;;;;;;;;;;;;;;19.76;39.76;97295.66;5155286;27;19997;-33
2022/11/13 03:28:39;;;;;;;;;;;;;;;19.77;39.72;97297.97;5155471;27;20400;-34
2022/11/13 03:31:04;;;;;;;;;;;;;;;19.64;40.05;97294.66;5155273;27;19911;-33
2022/11/13 03:33:30;;;;;;;;;;;;;;;19.76;39.74;97296.44;5155308;27;19913;-33
2022/11/13 03:35:55;;;;;;;;;;;;;;;19.84;39.59;97294.09;5155103;27;19907;-33
2022/11/13 03:38:21;;;;;;;;;;;;;;;19.78;39.59;97295.97;5136730;27;20320;-34
2022/11/13 03:40:46;;;;;;;;;;;;;;;19.72;39.90;97293.84;5155285;27;19907;-33
2022/11/13 03:43:11;;;;;;;;;;;;;;;19.79;39.71;97291.97;5155530;27;20292;-33
2022/11/13 03:45:37;;;;;;;;;;;;;;;19.78;39.54;97293.22;5155365;27;19907;-33
2022/11/13 03:48:02;;;;;;;;;;;;;;;19.77;39.80;97288.94;5136644;27;19907;-34
2022/11/13 03:50:28;;;;;;;;;;;;;;;19.80;39.66;97290.75;5155261;27;20346;-33
2022/11/13 03:52:53;;;;;;;;;;;;;;;19.82;39.51;97294.56;5155223;27;19906;-35
2022/11/13 03:55:18;;;;;;;;;;;;;;;19.78;39.77;97290.47;5155215;27;19907;-34
2022/11/13 03:57:45;;;;;;;;;;;;;;;19.84;39.42;97291.34;5155545;27;19907;-33
2022/11/13 04:00:11;;;;;;;;;;;;;;;19.79;39.69;97291.97;5155033;27;20279;-34
2022/11/13 04:02:36;;;;;;;;;;;;;;;19.77;39.57;97284.19;5154906;27;19907;-34
2022/11/13 04:05:01;;;;;;;;;;;;;;;19.75;39.63;97288.63;5155155;27;19921;-34
2022/11/13 04:07:27;;;;;;;;;;;;;;;19.80;39.52;97279.72;5155250;27;19907;-34
2022/11/13 04:09:52;;;;;;;;;;;;;;;19.82;39.40;97274.53;5147810;27;19929;-34
2022/11/13 04:12:17;;;;;;;;;;;;;;;19.82;39.50;97271.78;5136130;27;20267;-34
2022/11/13 04:14:43;;;;;;;;;;;;;;;19.66;39.74;97268.16;5137843;27;19907;-34
2022/11/13 04:17:08;;;;;;;;;;;;;;;19.64;39.87;97267.13;5137920;27;19907;-33
2022/11/13 04:19:33;;;;;;;;;;;;;;;19.77;39.61;97255.91;5137754;27;20241;-33
2022/11/13 04:21:58;;;;;;;;;;;;;;;19.75;39.47;97261.13;5137801;27;19933;-33
2022/11/13 04:24:24;;;;;;;;;;;;;;;19.70;39.53;97260.50;5137594;27;19922;-33
2022/11/13 04:26:49;;;;;;;;;;;;;;;19.73;39.54;97259.59;5137639;27;19907;-33
2022/11/13 04:29:14;;;;;;;;;;;;;;;19.78;39.53;97255.41;5137696;27;19911;-33
2022/11/13 04:31:39;;;;;;;;;;;;;;;19.75;39.47;97250.09;5119268;27;20279;-33
2022/11/13 04:34:05;;;;;;;;;;;;;;;19.66;39.93;97251.66;5137855;27;19907;-34
2022/11/13 04:36:30;;;;;;;;;;;;;;;19.64;39.69;97240.38;5137706;27;19946;-33
2022/11/13 04:38:55;;;;;;;;;;;;;;;19.72;39.45;97246.28;5137851;27;20002;-33
2022/11/13 04:44:04;;;;;;;;;;;;;;;19.72;39.51;97251.78;5137756;27;20014;-33
2022/11/13 04:46:30;;;;;;;;;;;;;;;19.62;39.67;97248.34;5137285;27;20373;-33
2022/11/13 04:48:55;;;;;;;;;;;;;;;19.70;39.55;97244.00;5137349;27;20040;-33
2022/11/13 04:51:20;;;;;;;;;;;;;;;19.74;39.48;97238.34;5137118;27;19911;-33
2022/11/13 04:53:46;;;;;;;;;;;;;;;19.73;39.56;97243.06;5137139;27;19935;-34
2022/11/13 04:56:11;;;;;;;;;;;;;;;19.64;39.60;97237.63;5137083;27;19907;-33
2022/11/13 04:58:36;;;;;;;;;;;;;;;19.69;39.64;97242.47;5137696;27;19912;-33
2022/11/13 05:01:03;;;;;;;;;;;;;;;19.67;39.58;97236.69;5137053;27;20326;-33
2022/11/13 05:03:28;;;;;;;;;;;;;;;19.72;39.51;97235.28;5137011;27;19907;-33
2022/11/13 05:06:00;;;;;;;;;;;;;;;19.63;39.46;97240.84;5136820;27;19914;-34
2022/11/13 05:08:25;;;;;;;;;;;;;;;19.71;39.57;97233.75;5137015;27;19911;-33
2022/11/13 05:10:50;;;;;;;;;;;;;;;19.75;39.37;97233.59;5118201;27;19911;-35
2022/11/13 05:13:16;;;;;;;;;;;;;;;19.77;39.50;97231.16;5136816;27;19911;-35
2022/11/13 05:15:41;;;;;;;;;;;;;;;19.69;39.39;97234.22;5136971;27;20363;-33
2022/11/13 05:18:06;;;;;;;;;;;;;;;19.69;39.59;97225.97;5136656;27;19914;-33
2022/11/13 05:20:32;;;;;;;;;;;;;;;19.68;39.59;97232.69;5136569;27;19907;-33
2022/11/13 05:22:57;;;;;;;;;;;;;;;19.59;39.61;97221.75;5136458;27;19981;-34
2022/11/13 05:25:22;;;;;;;;;;;;;;;19.58;39.68;97209.22;5118320;27;19908;-33
2022/11/13 05:27:48;;;;;;;;;;;;;;;19.67;39.48;97217.41;5146143;27;19907;-34
2022/11/13 05:30:13;;;;;;;;;;;;;;;19.70;39.41;97208.22;5157190;27;20002;-33
2022/11/13 05:32:38;;;;;;;;;;;;;;;19.73;39.36;97212.81;5157090;27;19913;-35
2022/11/13 05:35:04;;;;;;;;;;;;;;;19.67;39.41;97214.66;5157227;27;19989;-34
2022/11/13 05:37:29;;;;;;;;;;;;;;;19.69;39.35;97220.47;5157111;27;19910;-34
2022/11/13 05:39:54;;;;;;;;;;;;;;;19.72;39.29;97227.03;5157320;27;19917;-34
2022/11/13 05:42:20;;;;;;;;;;;;;;;19.72;39.29;97216.78;5156787;27;19994;-33
2022/11/13 05:44:45;;;;;;;;;;;;;;;19.75;39.23;97206.06;5156809;27;19960;-33
2022/11/13 05:47:10;;;;;;;;;;;;;;;19.67;39.28;97214.66;5156913;27;19906;-33
2022/11/13 05:49:36;;;;;;;;;;;;;;;19.63;39.39;97222.34;5156488;27;19914;-35
2022/11/13 05:52:01;;;;;;;;;;;;;;;19.65;39.37;97213.63;5156715;27;19938;-35
2022/11/13 05:54:26;;;;;;;;;;;;;;;19.68;39.30;97218.94;5156674;27;19949;-33
2022/11/13 05:56:52;;;;;;;;;;;;;;;19.68;39.34;97220.94;5156919;27;19938;-35
2022/11/13 05:59:17;;;;;;;;;;;;;;;19.71;39.23;97217.25;5156530;27;19914;-33
2022/11/13 06:01:42;;;;;;;;;;;;;;;19.72;39.36;97225.03;5156748;27;19914;-33
2022/11/13 06:04:08;;;;;;;;;;;;;;;19.68;39.20;97218.19;5156482;27;19914;-33
2022/11/13 06:06:34;;;;;;;;;;;;;;;19.65;39.37;97230.13;5156530;27;19907;-33
2022/11/13 06:09:00;;;;;;;;;;;;;;;19.66;39.51;97226.91;5156389;27;19906;-33
2022/11/13 06:11:26;;;;;;;;;;;;;;;19.67;39.26;97238.66;5148297;27;19961;-33
2022/11/13 06:13:52;;;;;;;;;;;;;;;19.70;39.18;97235.75;5135675;27;19915;-33
2022/11/13 06:16:19;;;;;;;;;;;;;;;19.65;39.21;97230.91;5143897;27;19911;-33
2022/11/13 06:18:45;;;;;;;;;;;;;;;19.62;39.40;97233.81;5133697;27;19998;-34
2022/11/13 06:21:20;;;;;;;;;;;;;;;19.70;39.16;97232.22;5140893;27;20460;-33
2022/11/13 06:23:45;;;;;;;;;;;;;;;19.62;39.29;97231.81;5153943;27;20401;-33
2022/11/13 06:26:12;;;;;;;;;;;;;;;19.61;39.47;97238.56;5153609;27;19906;-33
2022/11/13 06:28:38;;;;;;;;;;;;;;;19.65;39.21;97235.63;5154049;27;19964;-35
2022/11/13 06:31:04;;;;;;;;;;;;;;;19.62;39.26;97234.59;5153915;27;19915;-34
2022/11/13 06:33:30;;;;;;;;;;;;;;;19.67;39.23;97238.66;5145189;27;19907;-34
2022/11/13 06:35:55;;;;;;;;;;;;;;;19.67;39.23;97238.66;5132804;27;19915;-33
2022/11/13 06:38:21;;;;;;;;;;;;;;;19.69;39.12;97242.47;5133011;27;19956;-33
2022/11/13 06:40:46;;;;;;;;;;;;;;;19.69;39.15;97241.72;5133214;27;20259;-33
2022/11/13 06:43:11;;;;;;;;;;;;;;;19.66;39.15;97243.41;5133289;27;19910;-34
2022/11/13 06:45:37;;;;;;;;;;;;;;;19.63;39.31;97243.59;5132958;27;19918;-33
2022/11/13 06:48:03;;;;;;;;;;;;;;;19.61;39.24;97249.56;5133081;27;19972;-33
2022/11/13 06:50:29;;;;;;;;;;;;;;;19.70;39.10;97243.25;5132780;27;19923;-33
2022/11/13 06:52:54;;;;;;;;;;;;;;;19.69;39.23;97236.97;5132911;27;20132;-33
2022/11/13 06:55:19;;;;;;;;;;;;;;;19.50;39.47;97240.28;5132974;27;19950;-33
2022/11/13 06:57:45;;;;;;;;;;;;;;;19.62;39.31;97231.06;5133021;27;19946;-33
2022/11/13 07:00:10;;;;;;;;;;;;;;;19.65;39.26;97230.91;5133120;27;20359;-33
2022/11/13 07:02:36;;;;;;;;;;;;;;;19.64;39.05;97229.38;5132807;27;20406;-33
2022/11/13 07:05:01;;;;;;;;;;;;;;;19.66;39.17;97235.16;5132892;27;19997;-34
2022/11/13 07:07:26;;;;;;;;;;;;;;;19.67;39.16;97233.16;5132878;28;20383;-33
2022/11/13 07:09:52;;;;;;;;;;;;;;;19.65;39.20;97230.13;5139945;27;19915;-34
2022/11/13 07:12:17;;;;;;;;;;;;;;;19.55;39.24;97231.41;5153594;27;19911;-34
2022/11/13 07:14:42;;;;;;;;;;;;;;;19.64;39.24;97229.38;5153301;27;19956;-33
2022/11/13 07:17:08;;;;;;;;;;;;;;;19.73;38.91;97232.06;5151284;27;19910;-33
2022/11/13 07:19:33;;;;;;;;;;;;;;;19.61;39.10;97230.31;5153356;27;19936;-33
2022/11/13 07:21:58;;;;;;;;;;;;;;;19.70;38.88;97229.47;5153317;27;19925;-33
2022/11/13 07:24:24;;;;;;;;;;;;;;;19.68;39.11;97235.44;5153090;27;19919;-36
2022/11/13 07:26:49;;;;;;;;;;;;;;;19.62;39.11;97231.06;5152930;27;20351;-34
2022/11/13 07:29:14;;;;;;;;;;;;;;;19.69;39.14;97233.47;5153068;27;20289;-34
2022/11/13 07:31:40;;;;;;;;;;;;;;;19.75;38.88;97223.34;5148914;27;19911;-33
2022/11/13 07:34:05;;;;;;;;;;;;;;;19.61;39.30;97229.53;5155455;27;19907;-33
2022/11/13 07:36:30;;;;;;;;;;;;;;;19.67;39.14;97222.16;5155053;27;19914;-33
2022/11/13 07:38:55;;;;;;;;;;;;;;;19.62;39.15;97226.31;5155169;27;20358;-34
2022/11/13 07:41:21;;;;;;;;;;;;;;;19.68;39.14;97240.97;5155086;27;19960;-35
2022/11/13 07:43:46;;;;;;;;;;;;;;;19.61;39.13;97241.31;5154968;27;19953;-33
2022/11/13 07:46:11;;;;;;;;;;;;;;;18.88;40.44;97241.56;5156954;27;20467;-35
2022/11/13 07:48:37;;;;;;;;;;;;;;;18.71;40.80;97237.59;5158503;27;19914;-35
2022/11/13 07:51:03;;;;;;;;;;;;;;;19.08;39.95;97237.53;5157985;27;19911;-34
2022/11/13 07:53:29;;;;;;;;;;;;;;;19.34;39.27;97241.41;5158191;27;19911;-33
2022/11/13 07:55:55;;;;;;;;;;;;;;;19.52;38.94;97237.84;5158667;27;19918;-33
2022/11/13 07:58:20;;;;;;;;;;;;;;;19.44;39.08;97240.13;5158806;27;19921;-34
2022/11/13 08:00:48;;;;;;;;;;;;;;;19.58;38.85;97242.22;5159015;27;19907;-34
2022/11/13 08:03:14;;;;;;;;;;;;;;;19.65;38.83;97252.91;5158827;27;19907;-34
2022/11/13 08:05:40;;;;;;;;;;;;;;;19.62;38.77;97242.06;5158855;27;19907;-34
2022/11/13 08:08:06;;;;;;;;;;;;;;;19.62;38.93;97247.56;5158727;27;20422;-34
2022/11/13 08:10:31;;;;;;;;;;;;;;;19.64;39.01;97245.13;5158739;27;19918;-35
2022/11/13 08:13:01;;;;;;;;;;;;;;;19.54;39.02;97247.13;5158643;27;19907;-37
2022/11/13 08:15:27;;;;;;;;;;;;;;;19.63;38.92;97243.59;5158695;27;20002;-35
2022/11/13 08:17:53;;;;;;;;;;;;;;;19.62;39.06;97245.59;5158932;27;19946;-33
2022/11/13 08:20:18;;;;;;;;;;;;;;;19.53;39.41;97242.88;5143896;27;20382;-33
2022/11/13 08:22:43;;;;;;;;;;;;;;;19.50;39.34;97246.56;5137636;27;19915;-34
2022/11/13 08:25:09;;;;;;;;;;;;;;;19.64;39.02;97248.63;5138124;27;19928;-35
2022/11/13 08:27:34;;;;;;;;;;;;;;;19.69;38.99;97253.47;5137674;27;19917;-35
2022/11/13 08:29:59;;;;;;;;;;;;;;;19.59;39.08;97249.25;5137669;27;19956;-34
2022/11/13 08:32:25;;;;;;;;;;;;;;;19.56;39.31;97252.19;5137523;27;19911;-33
2022/11/13 08:34:50;;;;;;;;;;;;;;;19.55;39.28;97251.41;5137824;27;19972;-33
2022/11/13 08:37:16;;;;;;;;;;;;;;;19.56;39.35;97250.19;5137466;27;19908;-33
2022/11/13 08:39:41;;;;;;;;;;;;;;;19.61;39.04;97260.56;5137337;27;19968;-34
2022/11/13 08:42:06;;;;;;;;;;;;;;;19.65;39.27;97268.66;5137550;27;19914;-34
2022/11/13 08:44:32;;;;;;;;;;;;;;;19.65;39.17;97274.94;5137608;27;19907;-33
2022/11/13 08:46:57;;;;;;;;;;;;;;;19.61;39.22;97271.56;5137432;27;20385;-34
2022/11/13 08:49:22;;;;;;;;;;;;;;;19.65;39.15;97272.19;5137281;27;19914;-35
2022/11/13 08:51:48;;;;;;;;;;;;;;;19.66;39.21;97279.19;5137359;27;20404;-33
2022/11/13 08:54:13;;;;;;;;;;;;;;;19.50;39.36;97281.56;5137234;27;19907;-35
2022/11/13 08:56:38;;;;;;;;;;;;;;;19.54;39.42;97280.16;5136913;27;19907;-34
2022/11/13 08:59:04;;;;;;;;;;;;;;;19.42;39.69;97269.31;5136419;27;19991;-34
2022/11/13 09:01:29;;;;;;;;;;;;;;;19.51;39.53;97264.59;5137114;27;19971;-34
2022/11/13 09:03:55;;;;;;;;;;;;;;;19.55;39.25;97267.91;5118515;27;20378;-34
2022/11/13 09:06:20;;;;;;;;;;;;;;;19.54;39.50;97271.91;5137288;27;19907;-34
2022/11/13 09:08:45;;;;;;;;;;;;;;;19.10;39.08;97279.06;5137183;27;19907;-34
2022/11/13 09:11:11;;;;;;;;;;;;;;;19.47;39.46;97268.72;5136703;27;20336;-33
2022/11/13 09:13:36;;;;;;;;;;;;;;;19.59;39.24;97270.50;5136905;27;19907;-36
2022/11/13 09:16:02;;;;;;;;;;;;;;;19.60;39.22;97277.53;5136780;27;20324;-35
2022/11/13 09:18:28;;;;;;;;;;;;;;;19.55;39.20;97270.66;5136653;27;20367;-35
2022/11/13 09:20:54;;;;;;;;;;;;;;;19.51;39.34;97270.09;5136630;27;19954;-33
2022/11/13 09:23:19;;;;;;;;;;;;;;;19.45;39.35;97269.16;5136536;27;19971;-34
2022/11/13 09:25:45;;;;;;;;;;;;;;;19.55;39.34;97270.66;5136533;27;19942;-33
2022/11/13 09:28:10;;;;;;;;;;;;;;;19.57;39.22;97273.72;5152694;27;20282;-34
2022/11/13 09:30:37;;;;;;;;;;;;;;;19.68;38.99;97268.47;5154957;27;19919;-33
2022/11/13 09:33:03;;;;;;;;;;;;;;;19.60;39.32;97274.78;5155126;27;19907;-34
2022/11/13 09:35:35;;;;;;;;;;;;;;;19.35;39.68;97268.44;5157362;27;20274;-33
2022/11/13 09:38:08;;;;;;;;;;;;;;;19.56;39.31;97265.94;5157305;27;19907;-33
2022/11/13 09:40:47;;;;;;;;;;;;;;;19.55;39.47;97267.16;5157016;27;19950;-34
2022/11/13 09:43:24;;;;;;;;;;;;;;;19.67;39.00;97266.94;5157292;27;20370;-34
2022/11/13 09:45:52;;;;;;;;;;;;;;;19.68;39.03;97268.47;5156725;27;20358;-35
2022/11/13 09:48:17;;;;;;;;;;;;;;;19.57;39.48;97270.22;5156860;27;19907;-34
2022/11/13 09:50:43;;;;;;;;;;;;;;;19.61;39.17;97268.81;5156789;27;19918;-34
2022/11/13 09:53:10;;;;;;;;;;;;;;;19.77;38.88;97270.44;5138013;27;20001;-34
2022/11/13 09:55:39;;;;;;;;;;;;;;;19.61;39.30;97268.06;5156634;27;19911;-34
2022/11/13 09:58:08;;;;;;;;;;;;;;;19.52;39.40;97268.88;5156673;27;19952;-34
2022/11/13 10:00:34;;;;;;;;;;;;;;;19.69;38.99;97267.25;5156889;27;20050;-34
2022/11/13 10:03:18;;;;;;;;;;;;;;;19.74;39.08;97271.38;5137872;27;19952;-34
2022/11/13 10:05:44;;;;;;;;;;;;;;;19.58;39.20;97264.25;5156527;27;19907;-34
2022/11/13 10:08:15;;;;;;;;;;;;;;;19.59;39.34;97270.50;5156572;27;19907;-35
2022/11/13 10:10:47;;;;;;;;;;;;;;;19.44;38.96;97266.88;5155555;27;20005;-34
2022/11/13 10:13:17;;;;;;;;;;;;;;;19.57;39.38;97268.22;5156364;27;19907;-35
2022/11/13 10:15:44;;;;;;;;;;;;;;;19.65;39.13;97265.91;5156338;27;19911;-34
2022/11/13 10:18:16;;;;;;;;;;;;;;;19.54;38.57;97255.38;5138312;27;19914;-35
2022/11/13 10:20:56;;;;;;;;;;;;;;;19.42;39.43;97255.56;5135555;27;19911;-34
2022/11/13 10:23:33;;;;;;;;;;;;;;;19.50;39.21;97265.81;5135441;27;19916;-34
2022/11/13 10:26:04;;;;;;;;;;;;;;;19.66;38.91;97267.41;5135497;27;19907;-34
2022/11/13 10:28:29;;;;;;;;;;;;;;;19.59;39.13;97254.78;5135730;27;20300;-34
2022/11/13 10:30:54;;;;;;;;;;;;;;;19.66;38.76;97264.66;5135419;27;19922;-34
2022/11/13 10:33:21;;;;;;;;;;;;;;;19.59;38.93;97260.28;5116834;27;19960;-35
2022/11/13 10:36:06;;;;;;;;;;;;;;;19.79;38.90;97251.44;5135288;27;19908;-34
2022/11/13 10:38:49;;;;;;;;;;;;;;;19.48;39.40;97248.22;5065888;27;19943;-34
2022/11/13 10:41:15;;;;;;;;;;;;;;;19.56;39.11;97252.94;5135227;27;19907;-35
2022/11/13 10:43:51;;;;;;;;;;;;;;;19.72;38.96;97246.28;5134875;27;20287;-33
2022/11/13 10:46:21;;;;;;;;;;;;;;;19.72;38.94;97252.56;5135026;27;19907;-34
2022/11/13 10:48:47;;;;;;;;;;;;;;;19.55;39.24;97242.41;5153768;27;19955;-36
2022/11/13 10:51:25;;;;;;;;;;;;;;;19.49;37.96;97242.28;5155893;27;19911;-35
2022/11/13 10:53:51;;;;;;;;;;;;;;;19.20;39.04;97225.56;5156041;27;19914;-36
2022/11/13 10:56:20;;;;;;;;;;;;;;;19.47;39.48;97225.44;5155572;27;20255;-35
2022/11/13 10:58:58;;;;;;;;;;;;;;;19.43;39.31;97230.34;5155637;27;19911;-36
2022/11/13 11:01:23;;;;;;;;;;;;;;;19.17;39.00;97218.22;5155648;27;19907;-36
2022/11/13 11:03:49;;;;;;;;;;;;;;;19.50;38.92;97218.28;5155643;27;19914;-37
2022/11/13 11:06:14;;;;;;;;;;;;;;;19.30;39.39;97207.78;5155501;27;19906;-35
2022/11/13 11:08:40;;;;;;;;;;;;;;;19.64;38.86;97218.38;5155648;27;19914;-36
2022/11/13 11:14:18;;;;;;;;;;;;;;;19.62;38.79;97214.56;5155844;27;19914;-35
2022/11/13 11:16:44;;;;;;;;;;;;;;;19.64;38.79;97210.13;5155392;27;19911;-36
2022/11/13 11:19:11;;;;;;;;;;;;;;;19.60;38.37;97211.50;5137119;27;20007;-35
2022/11/13 11:21:39;;;;;;;;;;;;;;;19.72;38.58;97219.53;5158086;27;20286;-36
2022/11/13 11:24:12;;;;;;;;;;;;;;;19.58;38.46;97213.97;5159703;27;20348;-35
2022/11/13 11:26:42;;;;;;;;;;;;;;;19.25;38.66;97222.97;5159837;27;19918;-35
2022/11/13 11:29:07;;;;;;;;;;;;;;;19.46;38.74;97223.16;5159421;27;19907;-36
2022/11/13 11:31:36;;;;;;;;;;;;;;;19.52;38.84;97215.84;5159428;27;19955;-35
2022/11/13 11:34:10;;;;;;;;;;;;;;;19.71;38.73;97218.00;5159227;27;19914;-35
2022/11/13 11:36:54;;;;;;;;;;;;;;;19.65;38.76;97222.66;5159398;27;19952;-36
2022/11/13 11:39:34;;;;;;;;;;;;;;;19.70;38.93;97208.22;5159085;27;20223;-35
2022/11/13 11:42:03;;;;;;;;;;;;;;;19.67;38.75;97217.41;5159125;27;19906;-38
2022/11/13 11:44:31;;;;;;;;;;;;;;;19.78;38.42;97200.38;5158298;27;19917;-36
2022/11/13 11:46:56;;;;;;;;;;;;;;;19.82;38.59;97203.72;5159199;27;19907;-35
2022/11/13 11:49:24;;;;;;;;;;;;;;;19.72;38.80;97200.28;5140476;27;19918;-35
2022/11/13 11:52:03;;;;;;;;;;;;;;;19.82;38.68;97189.97;5159169;27;19963;-36
2022/11/13 11:54:39;;;;;;;;;;;;;;;19.77;38.61;97198.13;5158874;27;20032;-38
2022/11/13 11:57:13;;;;;;;;;;;;;;;19.64;38.80;97195.59;5159237;27;19907;-38
2022/11/13 11:59:54;;;;;;;;;;;;;;;19.77;38.75;97193.38;5158836;27;19910;-35
2022/11/13 12:02:37;;;;;;;;;;;;;;;19.63;37.85;97188.56;5158998;27;20048;-36
2022/11/13 12:05:11;;;;;;;;;;;;;;;19.36;38.86;97192.97;5158839;27;19907;-36
2022/11/13 12:07:46;;;;;;;;;;;;;;;19.67;38.93;97195.41;5158842;27;19907;-36
2022/11/13 12:10:17;;;;;;;;;;;;;;;19.42;38.49;97193.06;5158749;27;19918;-36
2022/11/13 12:13:12;;;;;;;;;;;;;;;19.35;38.45;97187.91;5158450;27;20279;-36
2022/11/13 12:15:50;;;;;;;;;;;;;;;19.11;39.21;97192.63;5136123;27;19907;-37
2022/11/13 12:18:27;;;;;;;;;;;;;;;19.16;39.03;97189.25;5158651;27;19911;-35
2022/11/13 12:20:55;;;;;;;;;;;;;;;18.88;38.93;97186.59;5154526;27;19951;-37
2022/11/13 12:23:24;;;;;;;;;;;;;;;19.45;38.71;97196.88;5139749;27;19915;-37
2022/11/13 12:26:21;;;;;;;;;;;;;;;19.42;38.51;97195.06;5158550;27;19959;-36
2022/11/13 12:28:49;;;;;;;;;;;;;;;19.47;38.30;97191.69;5074301;28;19909;-36
2022/11/13 12:31:22;;;;;;;;;;;;;;;19.36;39.26;97190.22;5073944;28;19955;-35
2022/11/13 12:33:57;;;;;;;;;;;;;;;19.21;38.64;97191.34;5074018;28;20052;-35
2022/11/13 12:36:23;;;;;;;;;;;;;;;19.17;38.91;97186.00;5074338;28;19912;-35
2022/11/13 12:38:58;;;;;;;;;;;;;;;19.56;38.38;97184.16;5091004;28;19923;-36
2022/11/13 12:41:44;;;;;;;;;;;;;;;19.59;38.99;97177.72;5091104;28;19915;-35
2022/11/13 12:44:21;;;;;;;;;;;;;;;19.83;38.41;97174.97;5074316;28;19908;-35
2022/11/13 12:46:48;;;;;;;;;;;;;;;19.67;38.17;97167.13;5074024;28;20367;-35
2022/11/13 12:49:33;;;;;;;;;;;;;;;19.69;38.74;97168.19;5073808;28;20031;-36
2022/11/13 12:52:03;;;;;;;;;;;;;;;19.33;39.04;97165.63;5073451;28;19919;-36
2022/11/13 12:54:33;;;;;;;;;;;;;;;19.59;38.79;97166.72;5074241;28;19988;-35